| time (UTC) | temp C | wind direction | speed KPH | gust KPH | rain 1hr cm | rain 24hr cm | rain mn cm | humidity % | barometer mb |
| 20260504215159 | -17 | 242 | 3.2 | 3.2 | 0.00 | 0.00 | 0.00 | 1015.1 | |
| 20260504214654 | -17 | 331 | 8.0 | 9.7 | 0.00 | 0.00 | 0.00 | 1015.1 | |
| 20260504214151 | -17 | 333 | 1.6 | 3.2 | 0.00 | 0.00 | 0.00 | 1015.0 | |
| 20260504213648 | -17 | 169 | 9.7 | 11.3 | 0.00 | 0.00 | 0.00 | 1014.7 | |
| 20260504213145 | -17 | 233 | 8.0 | 11.3 | 0.00 | 0.00 | 0.00 | 1014.8 | |
| 20260504212641 | -17 | 207 | 4.8 | 8.0 | 0.00 | 0.00 | 0.00 | 1014.7 | |
| 20260504212138 | -17 | 181 | 8.0 | 12.9 | 0.00 | 0.00 | 0.00 | 1015.0 | |
| 20260504211636 | -17 | 258 | 8.0 | 11.3 | 0.00 | 0.00 | 0.00 | 1014.9 | |
| 20260504211132 | -17 | 235 | 9.7 | 12.9 | 0.00 | 0.00 | 0.00 | 1015.0 | |
| 20260504210630 | -17 | 358 | 8.0 | 9.7 | 0.00 | 0.00 | 0.00 | 1015.1 | |
| 20260504210126 | -17 | 240 | 1.6 | 3.2 | 0.00 | 0.00 | 0.00 | 1015.0 | |
| 20260504205623 | -17 | 272 | 4.8 | 4.8 | 0.00 | 0.00 | 0.00 | 1015.2 | |
| 20260504205121 | -17 | 256 | 6.4 | 9.7 | 0.00 | 0.00 | 0.00 | 1015.0 | |
| 20260504204619 | -17 | 145 | 4.8 | 4.8 | 0.00 | 0.00 | 0.00 | 1015.4 | |
| 20260504204118 | 25 | 341 | 0.0 | 0.0 | 0.00 | 0.00 | 0.00 | 39 | 1015.3 |
| 20260504203616 | 25 | 248 | 4.8 | 8.0 | 0.00 | 0.00 | 0.00 | 39 | 1015.4 |
| 20260504203113 | 24 | 223 | 3.2 | 3.2 | 0.00 | 0.00 | 0.00 | 36 | 1015.3 |
| 20260504202608 | 25 | 161 | 6.4 | 8.0 | 0.00 | 0.00 | 0.00 | 38 | 1015.5 |
| 20260504202105 | 24 | 252 | 8.0 | 9.7 | 0.00 | 0.00 | 0.00 | 37 | 1015.5 |
| 20260504201602 | 24 | 268 | 11.3 | 14.5 | 0.00 | 0.00 | 0.00 | 38 | 1015.4 |
| 20260504201100 | 24 | 173 | 4.8 | 4.8 | 0.00 | 0.00 | 0.00 | 40 | 1015.6 |
| 20260504200556 | 24 | 280 | 4.8 | 4.8 | 0.00 | 0.00 | 0.00 | 40 | 1015.6 |
| 20260504200053 | 24 | 195 | 4.8 | 4.8 | 0.00 | 0.00 | 0.00 | 46 | 1015.6 |
| 20260504195549 | 24 | 166 | 8.0 | 11.3 | 0.00 | 0.00 | 0.00 | 40 | 1015.6 |
| 20260504195046 | 24 | 340 | 0.0 | 0.0 | 0.00 | 0.00 | 0.00 | 40 | 1015.8 |
| 20260504194542 | 24 | 248 | 8.0 | 9.7 | 0.00 | 0.00 | 0.00 | 44 | 1015.8 |
| 20260504194038 | 24 | 316 | 1.6 | 3.2 | 0.00 | 0.00 | 0.00 | 41 | 1015.9 |
| 20260504193535 | 23 | 162 | 4.8 | 8.0 | 0.00 | 0.00 | 0.00 | 44 | 1015.9 |
| 20260504193033 | 23 | 320 | 0.0 | 0.0 | 0.00 | 0.00 | 0.00 | 41 | 1016.1 |
| 20260504192531 | 23 | 172 | 8.0 | 9.7 | 0.00 | 0.00 | 0.00 | 41 | 1016.2 |
| 20260504192029 | 23 | 308 | 3.2 | 3.2 | 0.00 | 0.00 | 0.00 | 40 | 1016.2 |
| 20260504191527 | 23 | 359 | 1.6 | 8.0 | 0.00 | 0.00 | 0.00 | 42 | 1016.3 |
| 20260504191023 | 23 | 189 | 1.6 | 4.8 | 0.00 | 0.00 | 0.00 | 45 | 1016.4 |
| 20260504190519 | 23 | 179 | 3.2 | 3.2 | 0.00 | 0.00 | 0.00 | 40 | 1016.5 |
| 20260504190015 | 23 | 12 | 4.8 | 4.8 | 0.00 | 0.00 | 0.00 | 44 | 1016.6 |
| 20260504185512 | 23 | 352 | 6.4 | 8.0 | 0.00 | 0.00 | 0.00 | 46 | 1016.7 |
| 20260504185009 | 23 | 16 | 0.0 | 0.0 | 0.00 | 0.00 | 0.00 | 42 | 1016.7 |
| 20260504184504 | 23 | 207 | 9.7 | 9.7 | 0.00 | 0.00 | 0.00 | 41 | 1016.8 |
| 20260504184000 | 23 | 258 | 1.6 | 1.6 | 0.00 | 0.00 | 0.00 | 42 | 1016.9 |
| 20260504183457 | 22 | 337 | 0.0 | 0.0 | 0.00 | 0.00 | 0.00 | 41 | 1016.9 |
| 20260504182955 | 22 | 340 | 1.6 | 3.2 | 0.00 | 0.00 | 0.00 | 42 | 1017.1 |
| 20260504182452 | 22 | 144 | 17.7 | 20.9 | 0.00 | 0.00 | 0.00 | 41 | 1017.1 |
| 20260504181949 | 22 | 181 | 11.3 | 12.9 | 0.00 | 0.00 | 0.00 | 48 | 1017.1 |
| 20260504181446 | 23 | 156 | 9.7 | 11.3 | 0.00 | 0.00 | 0.00 | 43 | 1017.4 |
| 20260504180944 | 22 | 350 | 4.8 | 4.8 | 0.00 | 0.00 | 0.00 | 45 | 1017.2 |
| 20260504180443 | 22 | 312 | 4.8 | 8.0 | 0.00 | 0.00 | 0.00 | 45 | 1017.2 |
| 20260504175941 | 22 | 275 | 3.2 | 3.2 | 0.00 | 0.00 | 0.00 | 46 | 1017.4 |
| 20260504175438 | 22 | 279 | 3.2 | 3.2 | 0.00 | 0.00 | 0.00 | 45 | 1017.4 |
| 20260504174936 | 22 | 248 | 4.8 | 4.8 | 0.00 | 0.00 | 0.00 | 47 | 1017.4 |
| 20260504174433 | 22 | 239 | 1.6 | 1.6 | 0.00 | 0.00 | 0.00 | 49 | 1017.3 |
| 20260504173930 | 22 | 146 | 3.2 | 3.2 | 0.00 | 0.00 | 0.00 | 46 | 1017.6 |
| 20260504173426 | 22 | 349 | 4.8 | 4.8 | 0.00 | 0.00 | 0.00 | 47 | 1017.6 |
| 20260504172924 | 22 | 208 | 4.8 | 4.8 | 0.00 | 0.00 | 0.00 | 46 | 1017.4 |
| 20260504172420 | 22 | 220 | 3.2 | 3.2 | 0.00 | 0.00 | 0.00 | 46 | 1017.7 |
| 20260504171916 | 22 | 312 | 8.0 | 9.7 | 0.00 | 0.00 | 0.00 | 47 | 1017.6 |
| 20260504171414 | 22 | 307 | 3.2 | 3.2 | 0.00 | 0.00 | 0.00 | 48 | 1017.9 |
| 20260504170910 | 22 | 177 | 6.4 | 8.0 | 0.00 | 0.00 | 0.00 | 48 | 1017.8 |
| 20260504170407 | 21 | 16 | 4.8 | 4.8 | 0.00 | 0.00 | 0.00 | 48 | 1017.8 |
| 20260504160326 | 20 | 277 | 3.2 | 3.2 | 0.00 | 0.00 | 0.00 | 53 | 1018.7 |
| 20260504150750 | 19 | 285 | 3.2 | 3.2 | 0.00 | 0.00 | 0.00 | 51 | 1019.0 |
| 20260504150247 | 20 | 289 | 0.0 | 0.0 | 0.00 | 0.00 | 0.00 | 51 | 1019.1 |
| 20260504141217 | 18 | 352 | 0.0 | 0.0 | 0.00 | 0.00 | 0.00 | 62 | 1019.3 |
| 20260504140714 | 18 | 350 | 0.0 | 0.0 | 0.00 | 0.00 | 0.00 | 65 | 1019.3 |
| 20260504140209 | 17 | 336 | 0.0 | 0.0 | 0.00 | 0.00 | 0.00 | 66 | 1019.2 |
| 20260504130637 | 13 | 342 | 0.0 | 0.0 | 0.00 | 0.00 | 0.00 | 84 | 1019.1 |
| 20260504130134 | 12 | 343 | 0.0 | 0.0 | 0.00 | 0.00 | 0.00 | 88 | 1019.3 |
| 20260504110525 | 7 | 343 | 0.0 | 0.0 | 0.00 | 0.00 | 0.00 | 99 | 1018.4 |
| 20260504100442 | 7 | 343 | 0.0 | 0.0 | 0.00 | 0.00 | 0.00 | 98 | 1018.4 |
| 20260504081840 | 8 | 344 | 0.0 | 0.0 | 0.00 | 0.00 | 0.00 | 95 | 1018.5 |
| 20260504081337 | 8 | 343 | 0.0 | 0.0 | 0.00 | 0.00 | 0.00 | 94 | 1018.4 |
| 20260504080832 | 8 | 343 | 0.0 | 0.0 | 0.00 | 0.00 | 0.00 | 94 | 1018.3 |
| 20260504080330 | 8 | 343 | 0.0 | 0.0 | 0.00 | 0.00 | 0.00 | 94 | 1018.5 |
| 20260504070257 | 10 | 342 | 0.0 | 0.0 | 0.00 | 0.00 | 0.00 | 92 | 1018.7 |
| 20260504060218 | 11 | 340 | 0.0 | 0.0 | 0.00 | 0.00 | 0.00 | 89 | 1019.1 |
| 20260504050646 | 11 | 338 | 0.0 | 0.0 | 0.00 | 0.00 | 0.00 | 88 | 1019.3 |
| 20260504050142 | 11 | 339 | 0.0 | 1.6 | 0.00 | 0.00 | 0.00 | 88 | 1019.3 |
| 20260504045640 | 11 | 339 | 1.6 | 1.6 | 0.00 | 0.00 | 0.00 | 87 | 1019.2 |
| 20260504045140 | 11 | 341 | 0.0 | 1.6 | 0.00 | 0.00 | 0.00 | 87 | 1019.3 |
| 20260504044638 | 11 | 339 | 1.6 | 1.6 | 0.00 | 0.00 | 0.00 | 87 | 1019.4 |
| 20260504044134 | 11 | 339 | 1.6 | 1.6 | 0.00 | 0.00 | 0.00 | 87 | 1019.3 |
| 20260504043632 | 11 | 339 | 1.6 | 1.6 | 0.00 | 0.00 | 0.00 | 87 | 1019.3 |
| 20260504043129 | 11 | 339 | 1.6 | 1.6 | 0.00 | 0.00 | 0.00 | 88 | 1019.5 |
| 20260504042626 | 11 | 339 | 1.6 | 1.6 | 0.00 | 0.00 | 0.00 | 88 | 1019.5 |
| 20260504042123 | 11 | 339 | 1.6 | 1.6 | 0.00 | 0.00 | 0.00 | 86 | 1019.6 |
| 20260504041618 | 11 | 340 | 0.0 | 0.0 | 0.00 | 0.00 | 0.00 | 88 | 1019.4 |
| 20260504041115 | 11 | 340 | 0.0 | 1.6 | 0.00 | 0.00 | 0.00 | 89 | 1019.4 |
| 20260504040612 | 11 | 338 | 1.6 | 1.6 | 0.00 | 0.00 | 0.00 | 88 | 1019.6 |
| 20260504040109 | 11 | 339 | 1.6 | 1.6 | 0.00 | 0.00 | 0.00 | 87 | 1019.4 |
| 20260504035606 | 11 | 338 | 1.6 | 1.6 | 0.00 | 0.00 | 0.00 | 87 | 1019.4 |
| 20260504035102 | 11 | 339 | 1.6 | 1.6 | 0.00 | 0.00 | 0.00 | 88 | 1019.4 |
| 20260504034600 | 12 | 339 | 1.6 | 1.6 | 0.00 | 0.00 | 0.00 | 87 | 1019.4 |
| 20260504034056 | 12 | 339 | 1.6 | 1.6 | 0.00 | 0.00 | 0.00 | 85 | 1019.3 |
| 20260504033554 | 12 | 340 | 1.6 | 1.6 | 0.00 | 0.00 | 0.00 | 86 | 1019.4 |
| 20260504033051 | 12 | 341 | 1.6 | 1.6 | 0.00 | 0.00 | 0.00 | 83 | 1019.4 |
| 20260504032548 | 12 | 341 | 1.6 | 1.6 | 0.00 | 0.00 | 0.00 | 83 | 1019.3 |
| 20260504032045 | 12 | 342 | 1.6 | 1.6 | 0.00 | 0.00 | 0.00 | 83 | 1019.2 |
| 20260504031542 | 12 | 341 | 1.6 | 1.6 | 0.00 | 0.00 | 0.00 | 84 | 1019.2 |
| 20260504031038 | 12 | 340 | 1.6 | 1.6 | 0.00 | 0.00 | 0.00 | 83 | 1019.2 |
| 20260504030536 | 12 | 340 | 1.6 | 3.2 | 0.00 | 0.00 | 0.00 | 84 | 1019.2 |
| 20260504030032 | 12 | 343 | 1.6 | 1.6 | 0.00 | 0.00 | 0.00 | 84 | 1019.3 |
| 20260504025529 | 12 | 341 | 1.6 | 1.6 | 0.00 | 0.00 | 0.00 | 85 | 1019.2 |
| 20260504025025 | 12 | 342 | 0.0 | 0.0 | 0.00 | 0.00 | 0.00 | 84 | 1019.1 |
| 20260504024523 | 12 | 346 | 1.6 | 1.6 | 0.00 | 0.00 | 0.00 | 86 | 1019.2 |
| 20260504024020 | 13 | 333 | 3.2 | 3.2 | 0.00 | 0.00 | 0.00 | 86 | 1019.1 |
| 20260504023516 | 12 | 338 | 0.0 | 1.6 | 0.00 | 0.00 | 0.00 | 82 | 1019.0 |
| 20260504023012 | 13 | 339 | 1.6 | 1.6 | 0.00 | 0.00 | 0.00 | 84 | 1019.3 |
| 20260504022508 | 12 | 338 | 1.6 | 1.6 | 0.00 | 0.00 | 0.00 | 82 | 1019.0 |
| 20260504022005 | 13 | 339 | 1.6 | 1.6 | 0.00 | 0.00 | 0.00 | 82 | 1019.1 |
| 20260504021502 | 13 | 339 | 1.6 | 1.6 | 0.00 | 0.00 | 0.00 | 83 | 1018.8 |
| 20260504020959 | 13 | 339 | 1.6 | 1.6 | 0.00 | 0.00 | 0.00 | 83 | 1018.9 |
| 20260504020456 | 13 | 339 | 0.0 | 1.6 | 0.00 | 0.00 | 0.00 | 82 | 1018.6 |
| 20260504015953 | 13 | 339 | 1.6 | 1.6 | 0.00 | 0.00 | 0.00 | 81 | 1018.9 |
| 20260504015449 | 13 | 340 | 1.6 | 1.6 | 0.00 | 0.00 | 0.00 | 80 | 1018.6 |
| 20260504014944 | 13 | 345 | 1.6 | 1.6 | 0.00 | 0.00 | 0.00 | 79 | 1018.8 |
| 20260504014441 | 13 | 346 | 1.6 | 1.6 | 0.00 | 0.00 | 0.00 | 80 | 1018.4 |
| 20260504013938 | 13 | 344 | 1.6 | 1.6 | 0.00 | 0.00 | 0.00 | 79 | 1018.5 |
| 20260504013437 | 13 | 353 | 1.6 | 1.6 | 0.00 | 0.00 | 0.00 | 78 | 1018.3 |
| 20260504012932 | 14 | 351 | 1.6 | 1.6 | 0.00 | 0.00 | 0.00 | 79 | 1018.1 |
| 20260504012430 | 14 | 349 | 1.6 | 1.6 | 0.00 | 0.00 | 0.00 | 79 | 1018.2 |
| 20260504011927 | 14 | 347 | 1.6 | 1.6 | 0.00 | 0.00 | 0.00 | 78 | 1018.0 |
| 20260504011424 | 14 | 351 | 1.6 | 1.6 | 0.00 | 0.00 | 0.00 | 77 | 1017.9 |
| 20260504010920 | 15 | 345 | 1.6 | 1.6 | 0.00 | 0.00 | 0.00 | 76 | 1018.0 |
| 20260504010416 | 15 | 356 | 1.6 | 1.6 | 0.00 | 0.00 | 0.00 | 73 | 1018.0 |
| 20260504005913 | 15 | 356 | 1.6 | 1.6 | 0.00 | 0.00 | 0.00 | 75 | 1017.9 |
| 20260504005409 | 15 | 356 | 1.6 | 1.6 | 0.00 | 0.00 | 0.00 | 75 | 1017.9 |
| 20260504004907 | 15 | 356 | 1.6 | 1.6 | 0.00 | 0.00 | 0.00 | 71 | 1017.9 |
| 20260504004405 | 16 | 356 | 0.0 | 1.6 | 0.00 | 0.00 | 0.00 | 73 | 1017.7 |
| 20260504003901 | 16 | 356 | 0.0 | 0.0 | 0.00 | 0.00 | 0.00 | 73 | 1017.8 |
| 20260504003358 | 16 | 356 | 0.0 | 0.0 | 0.00 | 0.00 | 0.00 | 72 | 1017.8 |
| 20260504002854 | 16 | 356 | 0.0 | 1.6 | 0.00 | 0.00 | 0.00 | 70 | 1017.7 |
| 20260504002351 | 17 | 356 | 1.6 | 1.6 | 0.00 | 0.00 | 0.00 | 66 | 1017.6 |
| 20260504001849 | 17 | 355 | 1.6 | 1.6 | 0.00 | 0.00 | 0.00 | 66 | 1017.6 |
| 20260504001346 | 18 | 355 | 1.6 | 1.6 | 0.00 | 0.00 | 0.00 | 61 | 1017.7 |
| 20260504000843 | 18 | 355 | 1.6 | 1.6 | 0.00 | 0.00 | 0.00 | 62 | 1017.3 |
| 20260504000340 | 18 | 353 | 0.0 | 0.0 | 0.00 | 0.00 | 0.00 | 59 | 1017.7 |
| 20260503235837 | 19 | 353 | 0.0 | 0.0 | 0.00 | 0.00 | 0.00 | 57 | 1017.6 |
| 20260503235335 | 20 | 353 | 1.6 | 1.6 | 0.00 | 0.00 | 0.00 | 56 | 1017.6 |
| 20260503234832 | 20 | 339 | 0.0 | 1.6 | 0.00 | 0.00 | 0.00 | 45 | 1017.7 |
| 20260503234330 | 21 | 331 | 4.8 | 4.8 | 0.00 | 0.00 | 0.00 | 43 | 1017.6 |
| 20260503233827 | 21 | 293 | 4.8 | 4.8 | 0.00 | 0.00 | 0.00 | 42 | 1017.7 |
| 20260503233323 | 21 | 292 | 3.2 | 3.2 | 0.00 | 0.00 | 0.00 | 45 | 1017.8 |
| 20260503232820 | 22 | 333 | 1.6 | 1.6 | 0.00 | 0.00 | 0.00 | 42 | 1017.7 |
| 20260503232317 | 22 | 298 | 3.2 | 3.2 | 0.00 | 0.00 | 0.00 | 39 | 1017.6 |
| 20260503231815 | 22 | 344 | 3.2 | 3.2 | 0.00 | 0.00 | 0.00 | 41 | 1017.5 |
| 20260503231312 | 22 | 323 | 3.2 | 3.2 | 0.00 | 0.00 | 0.00 | 40 | 1017.6 |
| 20260503230808 | 22 | 302 | 1.6 | 3.2 | 0.00 | 0.00 | 0.00 | 39 | 1017.9 |
| 20260503230305 | 22 | 307 | 1.6 | 3.2 | 0.00 | 0.00 | 0.00 | 38 | 1018.0 |
| 20260503225803 | 22 | 220 | 4.8 | 4.8 | 0.00 | 0.00 | 0.00 | 39 | 1017.5 |
| 20260503225258 | 22 | 339 | 4.8 | 4.8 | 0.00 | 0.00 | 0.00 | 44 | 1017.7 |
| 20260503224755 | 22 | 344 | 0.0 | 0.0 | 0.00 | 0.00 | 0.00 | 43 | 1017.5 |
| 20260503224252 | 22 | 256 | 4.8 | 4.8 | 0.00 | 0.00 | 0.00 | 41 | 1017.6 |
| 20260503223750 | 22 | 319 | 0.0 | 0.0 | 0.00 | 0.00 | 0.00 | 39 | 1017.6 |
| 20260503223247 | 21 | 335 | 6.4 | 8.0 | 0.00 | 0.00 | 0.00 | 43 | 1017.6 |
| 20260503222743 | 21 | 289 | 3.2 | 3.2 | 0.00 | 0.00 | 0.00 | 40 | 1017.7 |
| 20260503222241 | 21 | 320 | 9.7 | 11.3 | 0.00 | 0.00 | 0.00 | 39 | 1017.4 |
| 20260503221739 | 21 | 26 | 4.8 | 4.8 | 0.00 | 0.00 | 0.00 | 38 | 1017.5 |
| 20260503221237 | 21 | 330 | 9.7 | 12.9 | 0.00 | 0.00 | 0.00 | 44 | 1017.8 |
| 20260503220733 | 21 | 292 | 8.0 | 9.7 | 0.00 | 0.00 | 0.00 | 38 | 1017.8 |
| 20260503220230 | 21 | 258 | 6.4 | 8.0 | 0.00 | 0.00 | 0.00 | 38 | 1017.6 |
| 20260503215727 | 21 | 298 | 8.0 | 9.7 | 0.00 | 0.00 | 0.00 | 38 | 1017.8 |
| 20260503215224 | 21 | 331 | 9.7 | 12.9 | 0.00 | 0.00 | 0.00 | 39 | 1017.8 |